Time;durP1;ratioP1;P1;durP2;ratioP2;P2;SDS_P1;SDS_P2;PMS_P1;PMS_P2;Temp;Humidity;BMP_temperature;BMP_pressure;BME280_temperature;BME280_humidity;BME280_pressure;Samples;Min_cycle;Max_cycle;Signal;HPM_P1;HPM_P2
2023/09/03 00:01:57;;;;;;;10.18;4.03;;;;;;;;;;5072612;28;20064;-74
2023/09/03 00:04:28;;;;;;;6.78;4.78;;;;;;;;;;5074083;28;20586;-74
2023/09/03 00:06:59;;;;;;;6.47;5.05;;;;;;;;;;5072918;28;20067;-73
2023/09/03 00:09:29;;;;;;;7.55;4.57;;;;;;;;;;5074265;28;20048;-73
2023/09/03 00:12:00;;;;;;;7.03;4.55;;;;;;;;;;5072546;28;20052;-73
2023/09/03 00:14:30;;;;;;;9.95;3.92;;;;;;;;;;5071604;28;20435;-73
2023/09/03 00:17:01;;;;;;;5.63;3.97;;;;;;;;;;5071697;28;20051;-73
2023/09/03 00:19:31;;;;;;;6.55;4.40;;;;;;;;;;5072790;28;20505;-73
2023/09/03 00:22:02;;;;;;;6.10;3.95;;;;;;;;;;5070860;28;20529;-73
2023/09/03 00:24:34;;;;;;;7.13;3.90;;;;;;;;;;5071134;28;20055;-73
2023/09/03 00:27:04;;;;;;;7.28;4.32;;;;;;;;;;5071009;28;20499;-74
2023/09/03 00:29:36;;;;;;;6.28;3.50;;;;;;;;;;5070756;28;20044;-72
2023/09/03 00:32:06;;;;;;;9.88;4.32;;;;;;;;;;5071606;28;20040;-74
2023/09/03 00:34:37;;;;;;;8.02;4.57;;;;;;;;;;5071293;28;20055;-74
2023/09/03 00:37:08;;;;;;;6.70;4.15;;;;;;;;;;5072294;28;20067;-73
2023/09/03 00:39:38;;;;;;;9.13;5.00;;;;;;;;;;5069995;28;20391;-73
2023/09/03 00:42:09;;;;;;;7.25;4.45;;;;;;;;;;5075929;28;20507;-74
2023/09/03 00:44:41;;;;;;;5.60;3.60;;;;;;;;;;5079936;28;20047;-73
2023/09/03 00:47:11;;;;;;;7.35;4.25;;;;;;;;;;5063727;28;20036;-73
2023/09/03 00:49:43;;;;;;;5.45;4.13;;;;;;;;;;5076237;28;20056;-73
2023/09/03 00:52:19;;;;;;;6.22;4.88;;;;;;;;;;5079151;28;20505;-73
2023/09/03 00:54:51;;;;;;;8.15;5.30;;;;;;;;;;5079272;28;20049;-75
2023/09/03 00:57:22;;;;;;;6.53;4.65;;;;;;;;;;5078849;28;20608;-75
2023/09/03 00:59:53;;;;;;;12.40;4.47;;;;;;;;;;5077397;28;20503;-72
2023/09/03 01:02:24;;;;;;;6.88;4.25;;;;;;;;;;5079582;28;20055;-74
2023/09/03 01:04:55;;;;;;;6.70;4.07;;;;;;;;;;5079967;28;20052;-74
2023/09/03 01:07:25;;;;;;;6.32;4.57;;;;;;;;;;5079092;28;20044;-75
2023/09/03 01:09:56;;;;;;;7.95;4.70;;;;;;;;;;5074763;28;20769;-72
2023/09/03 01:12:36;;;;;;;9.25;4.43;;;;;;;;;;5075906;28;20056;-73
2023/09/03 01:15:10;;;;;;;9.82;4.38;;;;;;;;;;5077151;28;20051;-73
2023/09/03 01:17:48;;;;;;;6.88;4.68;;;;;;;;;;5080224;28;20043;-73
2023/09/03 01:20:29;;;;;;;6.93;4.53;;;;;;;;;;5075043;28;20533;-75
2023/09/03 01:23:14;;;;;;;12.90;4.53;;;;;;;;;;5069783;28;20055;-74
2023/09/03 01:26:16;;;;;;;6.93;4.38;;;;;;;;;;5071988;28;20048;-73
2023/09/03 01:28:47;;;;;;;9.90;4.78;;;;;;;;;;5069757;28;20032;-75
2023/09/03 01:31:20;;;;;;;9.40;4.38;;;;;;;;;;5070090;28;20404;-72
2023/09/03 01:33:51;;;;;;;8.00;4.97;;;;;;;;;;5071547;28;20075;-72
2023/09/03 01:36:23;;;;;;;8.60;4.82;;;;;;;;;;5068651;28;20075;-73
2023/09/03 01:38:53;;;;;;;7.80;5.00;;;;;;;;;;5075364;28;20051;-73
2023/09/03 01:41:24;;;;;;;7.63;5.18;;;;;;;;;;5077579;28;20056;-75
2023/09/03 01:43:56;;;;;;;8.43;5.47;;;;;;;;;;5076584;28;20063;-74
2023/09/03 01:46:35;;;;;;;9.55;5.32;;;;;;;;;;5077461;28;20060;-75
2023/09/03 01:49:31;;;;;;;7.72;5.28;;;;;;;;;;5067903;28;20040;-76
2023/09/03 01:52:11;;;;;;;6.40;5.07;;;;;;;;;;5068221;28;20037;-74
2023/09/03 01:54:48;;;;;;;8.27;4.85;;;;;;;;;;5067981;28;20492;-72
2023/09/03 01:57:19;;;;;;;8.90;4.82;;;;;;;;;;5068145;28;20051;-74
2023/09/03 01:59:57;;;;;;;7.57;4.18;;;;;;;;;;5074925;28;20053;-74
2023/09/03 02:02:30;;;;;;;7.55;4.53;;;;;;;;;;5077802;28;20040;-74
2023/09/03 02:05:00;;;;;;;8.45;4.75;;;;;;;;;;5078742;28;20044;-75
2023/09/03 02:07:37;;;;;;;8.63;5.35;;;;;;;;;;5084080;28;20039;-74
2023/09/03 02:10:10;;;;;;;9.98;5.10;;;;;;;;;;5087624;28;20055;-73
2023/09/03 02:12:40;;;;;;;8.18;4.90;;;;;;;;;;5085917;28;20052;-75
2023/09/03 02:15:10;;;;;;;12.68;4.97;;;;;;;;;;5086744;28;20494;-73
2023/09/03 02:17:40;;;;;;;11.07;4.90;;;;;;;;;;5086611;28;20044;-78
2023/09/03 02:20:12;;;;;;;7.28;4.72;;;;;;;;;;5088001;28;20052;-75
2023/09/03 02:22:44;;;;;;;10.27;4.70;;;;;;;;;;5087879;28;20514;-75
2023/09/03 02:25:15;;;;;;;8.38;4.32;;;;;;;;;;5087704;28;20518;-72
2023/09/03 02:27:45;;;;;;;7.78;5.30;;;;;;;;;;5087762;28;20044;-73
2023/09/03 02:30:16;;;;;;;11.50;4.55;;;;;;;;;;5087650;28;20495;-74
2023/09/03 02:32:49;;;;;;;6.93;5.88;;;;;;;;;;5086829;28;20066;-74
2023/09/03 02:35:19;;;;;;;8.48;4.88;;;;;;;;;;5088479;28;20048;-74
2023/09/03 02:37:49;;;;;;;9.98;5.78;;;;;;;;;;5087587;28;20055;-75
2023/09/03 02:40:21;;;;;;;8.70;5.05;;;;;;;;;;5086558;28;20106;-74
2023/09/03 02:42:52;;;;;;;7.40;5.60;;;;;;;;;;5087772;28;20044;-73
2023/09/03 02:45:25;;;;;;;8.30;5.57;;;;;;;;;;5086465;28;20048;-75
2023/09/03 02:47:56;;;;;;;8.57;5.20;;;;;;;;;;5087476;28;20145;-73
2023/09/03 02:50:26;;;;;;;8.15;5.35;;;;;;;;;;5084749;28;20051;-73
2023/09/03 02:52:57;;;;;;;7.30;4.70;;;;;;;;;;5083390;28;20418;-75
2023/09/03 02:55:29;;;;;;;5.95;4.47;;;;;;;;;;5084396;28;20079;-74
2023/09/03 02:58:00;;;;;;;9.50;5.30;;;;;;;;;;5084542;28;20044;-74
2023/09/03 03:00:30;;;;;;;8.20;4.90;;;;;;;;;;5084585;28;20052;-73
2023/09/03 03:03:01;;;;;;;7.95;5.60;;;;;;;;;;5084138;28;20052;-73
2023/09/03 03:05:32;;;;;;;7.68;5.40;;;;;;;;;;5084792;28;20048;-73
2023/09/03 03:08:02;;;;;;;8.20;5.25;;;;;;;;;;5084755;28;20055;-74
2023/09/03 03:10:33;;;;;;;11.48;5.13;;;;;;;;;;5084423;28;20044;-75
2023/09/03 03:13:03;;;;;;;6.15;4.35;;;;;;;;;;5082651;28;20040;-74
2023/09/03 03:15:35;;;;;;;9.23;4.93;;;;;;;;;;5084971;28;20055;-78
2023/09/03 03:18:06;;;;;;;9.95;5.28;;;;;;;;;;5084576;28;20495;-73
2023/09/03 03:20:37;;;;;;;7.50;4.90;;;;;;;;;;5083397;28;20525;-73
2023/09/03 03:23:08;;;;;;;7.65;4.30;;;;;;;;;;5082151;28;20431;-74
2023/09/03 03:25:38;;;;;;;7.15;5.32;;;;;;;;;;5084066;28;20055;-75
2023/09/03 03:28:08;;;;;;;6.95;5.20;;;;;;;;;;5082502;28;20060;-75
2023/09/03 03:30:40;;;;;;;8.63;5.35;;;;;;;;;;5082804;28;20055;-73
2023/09/03 03:33:11;;;;;;;7.13;5.43;;;;;;;;;;5084261;28;20521;-74
2023/09/03 03:35:41;;;;;;;10.68;6.05;;;;;;;;;;5082550;28;20685;-75
2023/09/03 03:38:12;;;;;;;7.03;5.47;;;;;;;;;;5082050;28;20036;-75
2023/09/03 03:40:43;;;;;;;6.20;5.03;;;;;;;;;;5082554;28;20423;-74
2023/09/03 03:43:14;;;;;;;9.07;5.57;;;;;;;;;;5084226;28;20048;-72
2023/09/03 03:45:46;;;;;;;7.38;5.78;;;;;;;;;;5082386;28;20185;-73
2023/09/03 03:48:16;;;;;;;6.43;5.25;;;;;;;;;;5083475;28;20051;-73
2023/09/03 03:50:49;;;;;;;8.48;4.75;;;;;;;;;;5084449;28;20052;-75
2023/09/03 03:53:20;;;;;;;7.47;5.13;;;;;;;;;;5084045;28;20499;-75
2023/09/03 03:56:03;;;;;;;6.05;4.72;;;;;;;;;;5083092;28;20044;-74
2023/09/03 03:58:40;;;;;;;7.57;5.30;;;;;;;;;;5082198;28;20059;-75
2023/09/03 04:01:15;;;;;;;10.10;5.72;;;;;;;;;;5082371;28;20052;-74
2023/09/03 04:03:49;;;;;;;6.90;5.00;;;;;;;;;;5081737;28;20048;-73
2023/09/03 04:06:20;;;;;;;7.65;5.20;;;;;;;;;;5083120;28;20051;-75
2023/09/03 04:08:50;;;;;;;6.43;5.20;;;;;;;;;;5081583;28;20052;-73
2023/09/03 04:11:24;;;;;;;7.63;5.78;;;;;;;;;;5083796;28;20044;-74
2023/09/03 04:13:54;;;;;;;6.38;5.30;;;;;;;;;;5081732;28;20048;-75
2023/09/03 04:16:25;;;;;;;9.02;5.07;;;;;;;;;;5081241;28;20059;-75
2023/09/03 04:18:56;;;;;;;6.97;5.10;;;;;;;;;;5082762;28;20044;-74
2023/09/03 04:21:26;;;;;;;8.30;4.90;;;;;;;;;;5082828;28;20058;-74
2023/09/03 04:23:59;;;;;;;6.18;4.93;;;;;;;;;;5081134;28;20064;-75
2023/09/03 04:26:29;;;;;;;8.38;5.50;;;;;;;;;;5083864;28;20043;-73
2023/09/03 04:29:00;;;;;;;10.65;5.40;;;;;;;;;;5081779;28;20056;-72
2023/09/03 04:31:31;;;;;;;8.68;5.28;;;;;;;;;;5083473;28;20052;-73
2023/09/03 04:34:05;;;;;;;7.50;4.72;;;;;;;;;;5081399;28;20051;-73
2023/09/03 04:36:36;;;;;;;7.55;5.55;;;;;;;;;;5081262;28;20059;-74
2023/09/03 04:39:08;;;;;;;8.30;5.30;;;;;;;;;;5081073;28;20047;-72
2023/09/03 04:41:40;;;;;;;9.30;5.22;;;;;;;;;;5080997;28;20051;-73
2023/09/03 04:44:12;;;;;;;8.55;5.70;;;;;;;;;;5082705;28;20075;-74
2023/09/03 04:46:51;;;;;;;9.85;4.68;;;;;;;;;;5081120;28;20051;-73
2023/09/03 04:49:23;;;;;;;6.78;5.30;;;;;;;;;;5081087;28;20059;-75
2023/09/03 04:51:54;;;;;;;10.85;5.88;;;;;;;;;;5081004;28;20048;-73
2023/09/03 04:54:25;;;;;;;9.57;5.45;;;;;;;;;;5082713;28;20051;-74
2023/09/03 04:56:55;;;;;;;7.13;5.28;;;;;;;;;;5080945;28;20052;-74
2023/09/03 04:59:27;;;;;;;9.75;5.85;;;;;;;;;;5081464;28;20518;-75
2023/09/03 05:01:58;;;;;;;7.97;5.15;;;;;;;;;;5081427;28;20044;-73
2023/09/03 05:04:31;;;;;;;8.15;5.80;;;;;;;;;;5081797;28;20044;-73
2023/09/03 05:07:04;;;;;;;8.07;5.47;;;;;;;;;;5080458;28;20063;-73
2023/09/03 05:09:35;;;;;;;12.63;5.25;;;;;;;;;;5082075;28;20052;-72
2023/09/03 05:12:06;;;;;;;8.18;4.63;;;;;;;;;;5082371;28;20048;-74
2023/09/03 05:14:36;;;;;;;8.43;5.15;;;;;;;;;;5080311;28;20071;-74
2023/09/03 05:17:07;;;;;;;8.52;5.80;;;;;;;;;;5080737;28;20043;-74
2023/09/03 05:19:39;;;;;;;7.03;5.00;;;;;;;;;;5080266;28;20055;-75
2023/09/03 05:22:10;;;;;;;9.45;5.00;;;;;;;;;;5080148;28;20075;-73
2023/09/03 05:24:40;;;;;;;8.80;5.32;;;;;;;;;;5080233;28;20845;-74
2023/09/03 05:27:10;;;;;;;9.38;5.35;;;;;;;;;;5080754;28;20040;-74
2023/09/03 05:29:40;;;;;;;6.78;5.32;;;;;;;;;;5080779;28;20044;-72
2023/09/03 05:32:14;;;;;;;9.60;5.38;;;;;;;;;;5082013;28;20072;-73
2023/09/03 05:34:45;;;;;;;7.15;5.40;;;;;;;;;;5080261;28;20055;-74
2023/09/03 05:37:15;;;;;;;6.45;4.65;;;;;;;;;;5080600;28;20562;-73
2023/09/03 05:39:46;;;;;;;8.30;5.20;;;;;;;;;;5080271;28;20542;-73
2023/09/03 05:42:16;;;;;;;6.68;4.82;;;;;;;;;;5081624;28;20044;-74
2023/09/03 05:44:48;;;;;;;8.25;5.50;;;;;;;;;;5081280;28;20066;-72
2023/09/03 05:47:20;;;;;;;7.82;4.70;;;;;;;;;;5079740;28;20066;-74
2023/09/03 05:49:57;;;;;;;9.48;5.13;;;;;;;;;;5080244;28;20059;-74
2023/09/03 05:52:27;;;;;;;9.10;5.20;;;;;;;;;;5080065;28;20054;-74
2023/09/03 05:54:58;;;;;;;10.60;4.85;;;;;;;;;;5080864;28;20044;-75
2023/09/03 05:57:30;;;;;;;7.03;5.50;;;;;;;;;;5079125;28;20060;-74
2023/09/03 06:00:01;;;;;;;8.63;4.93;;;;;;;;;;5080357;28;20519;-74
2023/09/03 06:02:34;;;;;;;12.55;6.00;;;;;;;;;;5080150;28;20048;-73
2023/09/03 06:05:05;;;;;;;8.30;5.13;;;;;;;;;;5080062;28;20052;-73
2023/09/03 06:07:36;;;;;;;9.25;5.15;;;;;;;;;;5081453;28;20048;-74
2023/09/03 06:10:06;;;;;;;12.55;5.35;;;;;;;;;;5081143;28;20047;-74
2023/09/03 06:12:37;;;;;;;8.35;5.53;;;;;;;;;;5081526;28;20051;-75
2023/09/03 06:15:08;;;;;;;8.32;5.18;;;;;;;;;;5081450;28;20048;-74
2023/09/03 06:17:40;;;;;;;8.85;5.03;;;;;;;;;;5080852;28;20079;-74
2023/09/03 06:20:11;;;;;;;8.65;5.35;;;;;;;;;;5081464;28;20050;-73
2023/09/03 06:22:41;;;;;;;6.93;5.20;;;;;;;;;;5081351;28;20063;-75
2023/09/03 06:25:12;;;;;;;8.82;5.63;;;;;;;;;;5082371;28;20505;-73
2023/09/03 06:27:43;;;;;;;7.93;4.80;;;;;;;;;;5085302;28;20047;-74
2023/09/03 06:30:15;;;;;;;7.13;5.25;;;;;;;;;;5086202;28;20040;-75
2023/09/03 06:32:45;;;;;;;8.82;5.45;;;;;;;;;;5083511;28;20052;-74
2023/09/03 06:35:16;;;;;;;7.30;5.45;;;;;;;;;;5085001;28;20058;-74
2023/09/03 06:37:46;;;;;;;8.40;5.80;;;;;;;;;;5085097;28;20055;-74
2023/09/03 06:40:18;;;;;;;8.73;5.13;;;;;;;;;;5085384;28;20051;-74
2023/09/03 06:42:48;;;;;;;9.07;5.60;;;;;;;;;;5084937;28;20518;-73
2023/09/03 06:45:20;;;;;;;9.52;4.85;;;;;;;;;;5084041;28;20044;-74
2023/09/03 06:47:50;;;;;;;10.55;4.93;;;;;;;;;;5085366;28;20047;-73
2023/09/03 06:50:21;;;;;;;9.70;5.63;;;;;;;;;;5085557;28;20055;-74
2023/09/03 06:52:52;;;;;;;9.95;5.85;;;;;;;;;;5083635;28;20529;-75
2023/09/03 06:55:22;;;;;;;7.85;6.05;;;;;;;;;;5085440;28;20044;-73
2023/09/03 06:57:52;;;;;;;10.82;5.65;;;;;;;;;;5084436;28;20052;-73
2023/09/03 07:00:22;;;;;;;9.10;4.97;;;;;;;;;;5084872;28;20048;-72
2023/09/03 07:02:53;;;;;;;8.00;5.32;;;;;;;;;;5084018;28;20419;-75
2023/09/03 07:05:24;;;;;;;9.50;5.15;;;;;;;;;;5084394;28;20578;-74
2023/09/03 07:07:54;;;;;;;8.95;5.32;;;;;;;;;;5085080;28;20388;-74
2023/09/03 07:10:24;;;;;;;8.80;6.15;;;;;;;;;;5083766;28;20048;-73
2023/09/03 07:12:55;;;;;;;11.35;5.30;;;;;;;;;;5084711;28;20414;-72
2023/09/03 07:15:27;;;;;;;8.35;6.50;;;;;;;;;;5084055;28;20040;-74
2023/09/03 07:17:57;;;;;;;10.55;6.57;;;;;;;;;;5084172;28;20078;-76
2023/09/03 07:20:26;;;;;;;8.18;5.93;;;;;;;;;;5084410;28;20055;-75
2023/09/03 07:22:57;;;;;;;8.27;6.18;;;;;;;;;;5084196;28;20071;-73
2023/09/03 07:25:31;;;;;;;9.40;6.10;;;;;;;;;;5083157;28;20510;-74
2023/09/03 07:28:03;;;;;;;8.43;5.70;;;;;;;;;;5083218;28;20056;-73
2023/09/03 07:30:33;;;;;;;7.40;5.30;;;;;;;;;;5083192;28;20075;-73
2023/09/03 07:33:03;;;;;;;6.88;5.28;;;;;;;;;;5082454;28;20051;-74
2023/09/03 07:35:34;;;;;;;7.88;5.50;;;;;;;;;;5083484;28;20052;-73
2023/09/03 07:38:05;;;;;;;11.55;6.07;;;;;;;;;;5084262;28;20044;-73
2023/09/03 07:40:40;;;;;;;9.48;6.65;;;;;;;;;;5084012;28;20051;-74
2023/09/03 07:43:10;;;;;;;14.98;6.10;;;;;;;;;;5083619;28;20396;-73
2023/09/03 07:45:40;;;;;;;7.75;6.20;;;;;;;;;;5084333;28;20044;-74
2023/09/03 07:48:10;;;;;;;11.55;5.85;;;;;;;;;;5083808;28;20051;-73
2023/09/03 07:50:41;;;;;;;8.35;5.55;;;;;;;;;;5083497;28;20426;-74
2023/09/03 07:53:13;;;;;;;12.10;5.78;;;;;;;;;;5083655;28;20071;-75
2023/09/03 07:55:44;;;;;;;10.07;6.07;;;;;;;;;;5083566;28;20067;-75
2023/09/03 07:58:14;;;;;;;8.07;6.22;;;;;;;;;;5082011;28;20047;-73
2023/09/03 08:00:45;;;;;;;10.07;6.55;;;;;;;;;;5084028;28;20074;-74
2023/09/03 08:03:15;;;;;;;8.18;6.72;;;;;;;;;;5083616;28;20055;-72
2023/09/03 08:05:46;;;;;;;11.52;6.32;;;;;;;;;;5083306;28;20530;-74
2023/09/03 08:08:15;;;;;;;10.68;6.25;;;;;;;;;;5083881;28;20585;-74
2023/09/03 08:10:46;;;;;;;12.75;5.45;;;;;;;;;;5083545;28;20403;-73
2023/09/03 08:13:25;;;;;;;17.77;6.90;;;;;;;;;;5083234;28;20040;-74
2023/09/03 08:15:56;;;;;;;9.82;6.18;;;;;;;;;;5083407;28;20052;-73
2023/09/03 08:18:27;;;;;;;7.78;5.38;;;;;;;;;;5082851;28;20044;-72
2023/09/03 08:20:57;;;;;;;9.18;6.10;;;;;;;;;;5083782;28;20502;-73
2023/09/03 08:23:28;;;;;;;12.02;6.30;;;;;;;;;;5082361;28;20064;-73
2023/09/03 08:25:59;;;;;;;10.00;5.70;;;;;;;;;;5083073;28;20059;-73
2023/09/03 08:28:32;;;;;;;8.95;5.57;;;;;;;;;;5083357;28;20055;-73
2023/09/03 08:31:02;;;;;;;9.30;6.18;;;;;;;;;;5083583;28;20047;-74
2023/09/03 08:33:33;;;;;;;8.10;5.20;;;;;;;;;;5082956;28;20050;-74
2023/09/03 08:36:04;;;;;;;8.50;6.18;;;;;;;;;;5082598;28;20063;-73
2023/09/03 08:38:34;;;;;;;9.23;5.55;;;;;;;;;;5082842;28;20051;-73
2023/09/03 08:41:04;;;;;;;7.97;4.72;;;;;;;;;;5082682;28;20877;-73
2023/09/03 08:43:35;;;;;;;10.95;5.00;;;;;;;;;;5082571;28;20407;-74
2023/09/03 08:46:12;;;;;;;8.07;5.60;;;;;;;;;;5081092;28;20048;-75
2023/09/03 08:48:43;;;;;;;9.15;5.15;;;;;;;;;;5081826;28;20048;-73
2023/09/03 08:51:18;;;;;;;7.97;5.55;;;;;;;;;;5082567;28;20052;-74
2023/09/03 08:53:51;;;;;;;11.35;6.03;;;;;;;;;;5083131;28;20459;-73
2023/09/03 08:56:23;;;;;;;7.05;5.13;;;;;;;;;;5081547;28;20048;-73
2023/09/03 08:58:54;;;;;;;8.63;5.47;;;;;;;;;;5081863;28;20051;-74
2023/09/03 09:01:25;;;;;;;9.85;5.13;;;;;;;;;;5081664;28;20048;-74
2023/09/03 09:04:02;;;;;;;11.13;5.28;;;;;;;;;;5081962;28;20035;-74
2023/09/03 09:06:34;;;;;;;11.80;6.05;;;;;;;;;;5082022;28;20055;-76
2023/09/03 09:09:06;;;;;;;11.35;5.75;;;;;;;;;;5081969;28;20044;-74
2023/09/03 09:11:40;;;;;;;8.15;5.63;;;;;;;;;;5081950;28;20407;-74
2023/09/03 09:14:34;;;;;;;8.85;5.60;;;;;;;;;;5081969;28;20491;-74
2023/09/03 09:17:11;;;;;;;8.95;5.25;;;;;;;;;;5082107;28;20422;-74
2023/09/03 09:19:42;;;;;;;8.32;6.65;;;;;;;;;;5081743;28;20514;-74
2023/09/03 09:22:13;;;;;;;13.15;6.25;;;;;;;;;;5082194;28;20487;-76
2023/09/03 09:24:47;;;;;;;7.15;5.90;;;;;;;;;;5081830;28;20055;-74
2023/09/03 09:27:21;;;;;;;8.13;5.80;;;;;;;;;;5081837;28;20063;-74
2023/09/03 09:29:53;;;;;;;9.63;6.65;;;;;;;;;;5082029;28;20052;-74
2023/09/03 09:32:24;;;;;;;9.90;6.53;;;;;;;;;;5081616;28;20154;-78
2023/09/03 09:34:54;;;;;;;12.05;6.95;;;;;;;;;;5081732;28;20051;-75
2023/09/03 09:37:25;;;;;;;9.65;5.70;;;;;;;;;;5081872;28;20383;-74
2023/09/03 09:39:56;;;;;;;9.75;5.70;;;;;;;;;;5079986;28;20067;-75
2023/09/03 09:42:26;;;;;;;10.50;6.25;;;;;;;;;;5082128;28;20055;-76
2023/09/03 09:44:59;;;;;;;18.05;5.72;;;;;;;;;;5082298;28;20412;-76
2023/09/03 09:47:31;;;;;;;12.68;6.63;;;;;;;;;;5081886;28;20044;-75
2023/09/03 09:50:04;;;;;;;10.52;6.72;;;;;;;;;;5081490;28;20059;-76
2023/09/03 09:52:36;;;;;;;21.02;6.47;;;;;;;;;;5081508;28;20040;-76
2023/09/03 09:55:07;;;;;;;7.82;6.13;;;;;;;;;;5081586;28;20491;-76
2023/09/03 09:57:38;;;;;;;10.35;5.65;;;;;;;;;;5082177;28;20048;-75
2023/09/03 10:00:09;;;;;;;8.75;5.80;;;;;;;;;;5084995;28;20056;-76
2023/09/03 10:02:56;;;;;;;11.30;5.72;;;;;;;;;;5088042;28;20537;-75
2023/09/03 10:05:27;;;;;;;8.95;6.47;;;;;;;;;;5085135;28;20412;-75
2023/09/03 10:08:00;;;;;;;13.07;5.45;;;;;;;;;;5085718;28;20388;-76
2023/09/03 10:10:34;;;;;;;11.38;5.80;;;;;;;;;;5085998;28;20503;-75
2023/09/03 10:13:06;;;;;;;9.27;6.25;;;;;;;;;;5083927;28;20048;-75
2023/09/03 10:15:41;;;;;;;8.07;5.70;;;;;;;;;;5084894;28;20047;-75
2023/09/03 10:18:15;;;;;;;10.82;6.47;;;;;;;;;;5085786;28;20605;-75
2023/09/03 10:20:49;;;;;;;10.60;6.13;;;;;;;;;;5085336;28;20048;-75
2023/09/03 10:23:22;;;;;;;16.33;5.90;;;;;;;;;;5085968;28;20384;-75
2023/09/03 10:25:53;;;;;;;9.35;6.38;;;;;;;;;;5084951;28;20043;-74
2023/09/03 10:28:41;;;;;;;9.98;6.80;;;;;;;;;;5084847;28;20048;-75
2023/09/03 10:31:16;;;;;;;15.63;6.28;;;;;;;;;;5085758;28;20426;-74
2023/09/03 10:33:46;;;;;;;9.25;6.05;;;;;;;;;;5085480;28;20051;-75
2023/09/03 10:36:21;;;;;;;14.25;5.80;;;;;;;;;;5083805;28;20055;-75
2023/09/03 10:38:52;;;;;;;9.70;6.38;;;;;;;;;;5085192;28;20056;-74
2023/09/03 10:41:26;;;;;;;13.13;6.53;;;;;;;;;;5085555;28;20147;-75
2023/09/03 10:44:13;;;;;;;16.17;7.15;;;;;;;;;;5084979;28;20051;-74
2023/09/03 10:47:02;;;;;;;17.10;6.97;;;;;;;;;;5084880;28;20040;-77
2023/09/03 10:49:45;;;;;;;11.15;6.93;;;;;;;;;;5085740;28;20578;-75
2023/09/03 10:52:28;;;;;;;11.43;7.75;;;;;;;;;;5085362;28;20044;-75
2023/09/03 10:55:16;;;;;;;14.48;8.15;;;;;;;;;;5085113;28;20048;-75
2023/09/03 10:57:49;;;;;;;10.30;7.22;;;;;;;;;;5082872;28;20047;-74
2023/09/03 11:00:21;;;;;;;12.05;8.23;;;;;;;;;;5084472;28;20055;-74
2023/09/03 11:03:15;;;;;;;12.75;7.85;;;;;;;;;;5084602;28;20048;-74
2023/09/03 11:06:23;;;;;;;13.18;7.93;;;;;;;;;;5083524;28;20051;-75
2023/09/03 11:09:00;;;;;;;11.85;7.88;;;;;;;;;;5084684;28;20052;-74
2023/09/03 11:11:35;;;;;;;13.13;8.18;;;;;;;;;;5083625;28;20048;-75
2023/09/03 11:14:07;;;;;;;14.30;7.55;;;;;;;;;;5082473;28;20054;-75
2023/09/03 11:16:42;;;;;;;10.80;8.18;;;;;;;;;;5084111;28;20054;-75
2023/09/03 11:19:13;;;;;;;14.38;8.63;;;;;;;;;;5084483;28;20051;-75
2023/09/03 11:21:43;;;;;;;14.48;8.15;;;;;;;;;;5084918;28;20405;-74
2023/09/03 11:24:17;;;;;;;13.27;8.82;;;;;;;;;;5084620;28;20060;-79
2023/09/03 11:27:04;;;;;;;13.30;8.95;;;;;;;;;;5084040;28;21058;-76
2023/09/03 11:29:36;;;;;;;15.27;8.40;;;;;;;;;;5084631;28;20048;-75
2023/09/03 11:32:08;;;;;;;22.20;9.35;;;;;;;;;;5083864;28;20055;-78
2023/09/03 11:34:39;;;;;;;16.88;9.65;;;;;;;;;;5082535;28;20044;-74
2023/09/03 11:37:09;;;;;;;13.95;8.60;;;;;;;;;;5084122;28;20037;-76
2023/09/03 11:39:40;;;;;;;14.25;8.70;;;;;;;;;;5083867;28;20047;-75
2023/09/03 11:42:13;;;;;;;13.60;7.97;;;;;;;;;;5084857;28;20047;-76
2023/09/03 11:44:49;;;;;;;10.32;7.60;;;;;;;;;;5083661;28;20052;-74
2023/09/03 11:47:21;;;;;;;9.50;7.05;;;;;;;;;;5083736;28;20070;-74
2023/09/03 11:49:52;;;;;;;8.95;6.78;;;;;;;;;;5083351;28;20055;-75
2023/09/03 11:52:23;;;;;;;10.50;8.10;;;;;;;;;;5084520;28;20056;-74
2023/09/03 11:54:55;;;;;;;16.83;8.20;;;;;;;;;;5083778;28;20533;-74
2023/09/03 11:57:26;;;;;;;11.23;7.18;;;;;;;;;;5083400;28;20043;-74
2023/09/03 11:59:56;;;;;;;10.52;7.85;;;;;;;;;;5083108;28;20044;-75
2023/09/03 12:02:28;;;;;;;12.15;7.43;;;;;;;;;;5083946;28;20392;-75
2023/09/03 12:04:59;;;;;;;11.50;8.13;;;;;;;;;;5084209;28;20048;-74
2023/09/03 12:07:29;;;;;;;8.80;7.53;;;;;;;;;;5083378;28;20044;-74
2023/09/03 12:10:00;;;;;;;8.07;6.05;;;;;;;;;;5083485;28;20044;-75
2023/09/03 12:12:31;;;;;;;9.60;5.78;;;;;;;;;;5082448;28;20913;-74
2023/09/03 12:15:17;;;;;;;7.20;5.15;;;;;;;;;;5083324;28;20522;-75
2023/09/03 12:17:48;;;;;;;17.60;14.60;;;;;;;;;;5082780;28;20052;-76
2023/09/03 12:20:54;;;;;;;10.93;9.18;;;;;;;;;;5083121;28;20052;-75
2023/09/03 12:23:26;;;;;;;8.35;4.93;;;;;;;;;;5019858;28;20069;-74
2023/09/03 12:25:56;;;;;;;8.73;4.90;;;;;;;;;;5073787;28;20060;-74
2023/09/03 12:28:35;;;;;;;8.75;5.05;;;;;;;;;;5083001;28;20502;-74
2023/09/03 12:31:07;;;;;;;8.32;5.50;;;;;;;;;;5082754;28;20071;-75
2023/09/03 12:33:50;;;;;;;7.45;5.45;;;;;;;;;;5083283;28;20048;-75
2023/09/03 12:36:21;;;;;;;8.45;4.82;;;;;;;;;;5082873;28;20059;-75
2023/09/03 12:38:53;;;;;;;6.88;4.88;;;;;;;;;;5082932;28;20044;-75
2023/09/03 12:41:31;;;;;;;6.90;4.45;;;;;;;;;;5083262;28;20075;-74
2023/09/03 12:44:09;;;;;;;5.25;4.22;;;;;;;;;;5083433;28;20589;-75
2023/09/03 12:46:39;;;;;;;5.45;4.35;;;;;;;;;;5083076;28;20062;-75
2023/09/03 12:49:09;;;;;;;6.13;4.15;;;;;;;;;;5083061;28;20052;-74
2023/09/03 12:51:41;;;;;;;5.25;4.20;;;;;;;;;;5082161;28;20052;-75
2023/09/03 12:54:13;;;;;;;4.13;3.00;;;;;;;;;;5081477;28;20056;-75
2023/09/03 12:56:45;;;;;;;6.50;3.70;;;;;;;;;;5082595;28;20052;-75
2023/09/03 12:59:15;;;;;;;6.82;4.45;;;;;;;;;;5082033;28;20044;-76
2023/09/03 13:01:46;;;;;;;9.02;3.97;;;;;;;;;;5081948;28;20040;-76
2023/09/03 13:04:17;;;;;;;5.28;3.13;;;;;;;;;;5082004;28;20498;-74
2023/09/03 13:06:47;;;;;;;5.40;3.80;;;;;;;;;;5082282;28;20059;-75
2023/09/03 13:09:17;;;;;;;6.05;3.15;;;;;;;;;;5081850;28;20076;-74
2023/09/03 13:11:48;;;;;;;3.95;3.08;;;;;;;;;;5082187;28;20036;-74
2023/09/03 13:14:19;;;;;;;3.65;2.85;;;;;;;;;;5082002;28;20507;-75
2023/09/03 13:16:50;;;;;;;4.90;3.47;;;;;;;;;;5082279;28;20533;-80
2023/09/03 13:19:20;;;;;;;10.77;4.50;;;;;;;;;;5082437;28;20051;-75
2023/09/03 13:21:51;;;;;;;7.13;3.72;;;;;;;;;;5082277;28;20051;-75
2023/09/03 13:24:22;;;;;;;4.10;3.33;;;;;;;;;;5066095;28;20048;-76
2023/09/03 13:26:52;;;;;;;6.07;3.97;;;;;;;;;;5061663;28;20068;-76
2023/09/03 13:29:22;;;;;;;7.30;3.83;;;;;;;;;;5061502;28;20052;-75
2023/09/03 13:31:55;;;;;;;5.50;3.60;;;;;;;;;;5061636;28;20822;-75
2023/09/03 13:34:26;;;;;;;11.50;3.95;;;;;;;;;;5061332;28;20044;-76
2023/09/03 13:36:56;;;;;;;5.90;3.60;;;;;;;;;;5062745;28;20094;-76
2023/09/03 13:39:26;;;;;;;11.93;5.20;;;;;;;;;;5061999;28;20412;-80
2023/09/03 13:41:57;;;;;;;15.00;5.63;;;;;;;;;;5061346;28;20060;-75
2023/09/03 13:44:29;;;;;;;8.23;5.50;;;;;;;;;;5061247;28;20052;-77
2023/09/03 13:46:59;;;;;;;9.00;6.03;;;;;;;;;;5060481;28;20651;-76
2023/09/03 13:49:29;;;;;;;7.45;5.68;;;;;;;;;;5061938;28;20539;-76
2023/09/03 13:52:01;;;;;;;8.82;6.15;;;;;;;;;;5062331;28;20847;-75
2023/09/03 13:54:32;;;;;;;7.65;5.38;;;;;;;;;;5061970;28;20044;-75
2023/09/03 13:57:03;;;;;;;9.38;5.25;;;;;;;;;;5061367;28;20589;-77
2023/09/03 13:59:38;;;;;;;6.00;4.93;;;;;;;;;;5061561;28;20606;-75
2023/09/03 14:02:08;;;;;;;7.95;5.57;;;;;;;;;;5061317;28;20049;-77
2023/09/03 14:04:39;;;;;;;8.95;6.43;;;;;;;;;;5061805;28;20484;-76
2023/09/03 14:07:09;;;;;;;9.13;6.63;;;;;;;;;;5061460;28;20076;-75
2023/09/03 14:09:39;;;;;;;8.18;6.13;;;;;;;;;;5061076;28;20051;-76
2023/09/03 14:12:10;;;;;;;15.02;8.55;;;;;;;;;;5059708;28;20624;-76
2023/09/03 14:14:41;;;;;;;15.15;10.35;;;;;;;;;;5061140;28;20060;-76
2023/09/03 14:17:11;;;;;;;12.82;8.00;;;;;;;;;;5061843;28;20044;-76
2023/09/03 14:19:41;;;;;;;11.98;8.63;;;;;;;;;;5060560;28;20048;-75
2023/09/03 14:22:11;;;;;;;11.77;8.20;;;;;;;;;;5061060;28;20056;-75
2023/09/03 14:24:43;;;;;;;9.77;7.70;;;;;;;;;;5061157;28;20056;-76
2023/09/03 14:27:14;;;;;;;12.25;8.07;;;;;;;;;;5059423;28;20060;-76
2023/09/03 14:29:45;;;;;;;9.93;7.10;;;;;;;;;;5061192;28;20054;-76
2023/09/03 14:32:15;;;;;;;9.90;6.00;;;;;;;;;;5061489;28;20075;-75
2023/09/03 14:34:45;;;;;;;11.20;6.20;;;;;;;;;;5060750;28;20060;-79
2023/09/03 14:37:16;;;;;;;7.47;5.57;;;;;;;;;;5060874;28;20055;-75
2023/09/03 14:39:46;;;;;;;7.30;5.53;;;;;;;;;;5061502;28;20048;-75
2023/09/03 14:42:20;;;;;;;7.38;5.40;;;;;;;;;;5060262;28;20641;-76
2023/09/03 14:44:51;;;;;;;6.95;5.50;;;;;;;;;;5059996;28;20061;-76
2023/09/03 14:47:21;;;;;;;8.10;4.93;;;;;;;;;;5062989;28;20880;-76
2023/09/03 14:49:52;;;;;;;8.30;4.90;;;;;;;;;;5064632;28;20372;-76
2023/09/03 14:52:22;;;;;;;6.38;5.07;;;;;;;;;;5064612;28;20530;-76
2023/09/03 14:54:52;;;;;;;11.77;7.88;;;;;;;;;;5064849;28;20500;-76
2023/09/03 14:57:25;;;;;;;8.75;7.00;;;;;;;;;;5064160;28;20055;-78
2023/09/03 14:59:55;;;;;;;11.02;5.97;;;;;;;;;;5064439;28;20064;-75
2023/09/03 15:02:25;;;;;;;7.30;5.80;;;;;;;;;;5064584;28;20520;-78
2023/09/03 15:04:56;;;;;;;8.85;6.38;;;;;;;;;;5062856;28;20060;-76
2023/09/03 15:07:27;;;;;;;7.57;4.93;;;;;;;;;;5064370;28;20055;-75
2023/09/03 15:09:59;;;;;;;6.80;5.05;;;;;;;;;;5063157;28;20079;-76